createdAt,value
2023-04-16T00:00:26.718Z,11.50
2023-04-16T00:03:29.793Z,12.25
2023-04-16T00:06:32.893Z,11.80
2023-04-16T00:09:36.024Z,12.52
2023-04-16T00:12:38.959Z,11.63
2023-04-16T00:15:41.894Z,11.13
2023-04-16T00:18:44.810Z,12.13
2023-04-16T00:21:47.731Z,12.63
2023-04-16T00:24:50.854Z,12.55
2023-04-16T00:27:53.926Z,12.60
2023-04-16T00:30:56.982Z,11.80
2023-04-16T00:34:00.386Z,11.32
2023-04-16T00:37:03.326Z,11.48
2023-04-16T00:40:07.433Z,10.70
2023-04-16T00:43:10.646Z,10.27
2023-04-16T00:46:14.561Z,9.93
2023-04-16T00:49:17.691Z,10.07
2023-04-16T00:52:20.700Z,10.02
2023-04-16T00:55:23.633Z,9.90
2023-04-16T00:58:26.713Z,9.13
2023-04-16T01:01:29.666Z,9.77
2023-04-16T01:04:34.010Z,9.77
2023-04-16T01:07:37.140Z,9.43
2023-04-16T01:10:40.096Z,10.10
2023-04-16T01:13:43.204Z,9.93
2023-04-16T01:16:46.187Z,9.77
2023-04-16T01:19:49.167Z,9.55
2023-04-16T01:22:52.155Z,9.77
2023-04-16T01:25:55.095Z,9.93
2023-04-16T01:28:58.517Z,9.53
2023-04-16T01:32:01.960Z,10.10
2023-04-16T01:35:10.331Z,9.10
2023-04-16T01:38:13.256Z,8.85
2023-04-16T01:41:17.515Z,8.90
2023-04-16T01:44:21.788Z,9.57
2023-04-16T01:47:25.061Z,9.10
2023-04-16T01:50:28.102Z,10.15
2023-04-16T01:53:31.078Z,9.60
2023-04-16T01:56:33.982Z,9.18
2023-04-16T01:59:37.207Z,8.87
2023-04-16T02:02:40.504Z,8.93
2023-04-16T02:05:43.537Z,8.25
2023-04-16T02:08:46.557Z,8.85
2023-04-16T02:11:50.862Z,8.77
2023-04-16T02:14:53.850Z,9.30
2023-04-16T02:17:57.813Z,9.30
2023-04-16T02:21:02.304Z,8.80
2023-04-16T02:24:05.497Z,9.70
2023-04-16T02:27:09.077Z,9.52
2023-04-16T02:30:12.647Z,9.27
2023-04-16T02:33:16.092Z,9.03
2023-04-16T02:36:29.442Z,8.73
2023-04-16T02:39:32.860Z,8.57
2023-04-16T02:42:36.926Z,9.23
2023-04-16T02:45:39.943Z,8.73
2023-04-16T02:48:42.865Z,8.80
2023-04-16T02:51:45.802Z,9.55
2023-04-16T02:54:48.780Z,8.77
2023-04-16T02:57:52.963Z,8.63
2023-04-16T03:00:56.125Z,8.53
2023-04-16T03:03:59.319Z,8.53
2023-04-16T03:07:02.249Z,9.55
2023-04-16T03:10:06.280Z,8.10
2023-04-16T03:13:09.232Z,8.75
2023-04-16T03:16:12.224Z,8.37
2023-04-16T03:19:15.494Z,7.70
2023-04-16T03:22:19.894Z,8.10
2023-04-16T03:25:22.906Z,8.18
2023-04-16T03:28:26.319Z,8.13
2023-04-16T03:31:29.648Z,8.07
2023-04-16T03:34:33.973Z,8.07
2023-04-16T03:37:37.063Z,7.75
2023-04-16T03:40:40.072Z,8.15
2023-04-16T03:43:43.089Z,8.80
2023-04-16T03:46:46.895Z,8.53
2023-04-16T03:49:49.947Z,8.23
2023-04-16T03:52:53.906Z,7.00
2023-04-16T03:55:57.056Z,7.15
2023-04-16T03:59:00.342Z,7.00
2023-04-16T04:02:03.608Z,9.23
2023-04-16T04:05:08.599Z,7.20
2023-04-16T04:08:13.481Z,7.43
2023-04-16T04:11:17.506Z,7.85
2023-04-16T04:14:20.800Z,8.00
2023-04-16T04:17:23.797Z,6.93
2023-04-16T04:20:27.205Z,7.63
2023-04-16T04:23:30.326Z,6.70
2023-04-16T04:26:33.349Z,6.90
2023-04-16T04:29:36.328Z,7.03
2023-04-16T04:32:39.389Z,6.90
2023-04-16T04:35:42.335Z,6.87
2023-04-16T04:38:45.301Z,8.90
2023-04-16T04:41:48.746Z,8.25
2023-04-16T04:44:51.823Z,7.45
2023-04-16T04:47:54.955Z,7.90
2023-04-16T04:50:58.173Z,9.03
2023-04-16T04:54:01.198Z,8.20
2023-04-16T04:57:04.239Z,7.10
2023-04-16T05:00:08.150Z,6.50
2023-04-16T05:03:21.328Z,7.03
2023-04-16T05:06:24.400Z,7.23
2023-04-16T05:09:27.317Z,7.50
2023-04-16T05:12:30.282Z,7.10
2023-04-16T05:15:33.199Z,6.97
2023-04-16T05:18:36.181Z,7.50
2023-04-16T05:21:39.143Z,6.80
2023-04-16T05:24:42.102Z,8.40
2023-04-16T05:27:45.108Z,7.03
2023-04-16T05:30:48.188Z,6.25
2023-04-16T05:33:51.175Z,6.70
2023-04-16T05:36:54.111Z,7.23
2023-04-16T05:39:57.028Z,6.78
2023-04-16T05:43:00.156Z,6.72
2023-04-16T05:46:03.198Z,7.85
2023-04-16T05:49:06.178Z,7.57
2023-04-16T05:52:09.171Z,7.17
2023-04-16T05:55:12.177Z,6.85
2023-04-16T05:58:15.137Z,6.80
2023-04-16T06:01:18.318Z,6.65
2023-04-16T06:04:21.350Z,7.53
2023-04-16T06:07:24.380Z,7.13
2023-04-16T06:10:27.417Z,6.63
2023-04-16T06:13:30.372Z,7.32
2023-04-16T06:16:33.393Z,6.82
2023-04-16T06:19:36.507Z,6.73
2023-04-16T06:22:39.500Z,6.27
2023-04-16T06:25:42.451Z,6.22
2023-04-16T06:28:45.429Z,6.97
2023-04-16T06:31:49.244Z,7.38
2023-04-16T06:34:52.261Z,7.57
2023-04-16T06:37:55.569Z,7.30
2023-04-16T06:40:59.654Z,6.30
2023-04-16T06:44:02.699Z,5.88
2023-04-16T06:47:05.892Z,6.22
2023-04-16T06:50:09.345Z,5.20
2023-04-16T06:53:12.262Z,5.73
2023-04-16T06:56:15.167Z,5.90
2023-04-16T06:59:18.134Z,6.82
2023-04-16T07:02:21.166Z,5.30
2023-04-16T07:05:24.202Z,5.40
2023-04-16T07:08:27.202Z,6.63
2023-04-16T07:11:30.266Z,5.68
2023-04-16T07:14:33.246Z,5.28
2023-04-16T07:17:36.233Z,5.53
2023-04-16T07:20:39.167Z,4.70
2023-04-16T07:23:42.371Z,5.20
2023-04-16T07:26:45.549Z,5.32
2023-04-16T07:29:50.351Z,4.78
2023-04-16T07:32:54.996Z,5.07
2023-04-16T07:35:57.943Z,5.10
2023-04-16T07:39:01.060Z,5.47
2023-04-16T07:42:04.061Z,4.70
2023-04-16T07:45:07.651Z,4.60
2023-04-16T07:48:11.010Z,4.80
2023-04-16T07:51:14.036Z,4.70
2023-04-16T07:54:17.189Z,4.37
2023-04-16T07:57:20.550Z,4.50
2023-04-16T08:00:23.596Z,4.18
2023-04-16T08:03:26.852Z,4.35
2023-04-16T08:06:30.033Z,4.07
2023-04-16T08:09:32.991Z,4.00
2023-04-16T08:12:36.262Z,4.53
2023-04-16T08:15:39.252Z,4.82
2023-04-16T08:18:42.188Z,3.78
2023-04-16T08:21:45.489Z,4.27
2023-04-16T08:24:48.491Z,5.70
2023-04-16T08:27:51.559Z,4.07
2023-04-16T08:30:54.532Z,7.03
2023-04-16T08:33:57.496Z,6.70
2023-04-16T08:37:00.532Z,5.40
2023-04-16T08:40:04.023Z,4.10
2023-04-16T08:43:10.553Z,4.50
2023-04-16T08:46:13.653Z,3.97
2023-04-16T08:49:20.479Z,4.72
2023-04-16T08:52:23.400Z,3.87
2023-04-16T08:55:41.195Z,4.33
2023-04-16T08:58:44.138Z,4.00
2023-04-16T09:01:49.153Z,4.53
2023-04-16T09:04:52.881Z,3.38
2023-04-16T09:07:55.919Z,3.63
2023-04-16T09:10:58.847Z,4.03
2023-04-16T09:14:01.840Z,4.22
2023-04-16T09:17:04.790Z,4.28
2023-04-16T09:20:12.594Z,4.45
2023-04-16T09:23:15.614Z,3.83
2023-04-16T09:26:18.626Z,4.20
2023-04-16T09:29:34.480Z,4.70
2023-04-16T09:32:37.498Z,3.72
2023-04-16T09:35:49.289Z,4.10
2023-04-16T09:38:53.680Z,3.90
2023-04-16T09:41:57.931Z,3.77
2023-04-16T09:45:03.311Z,3.58
2023-04-16T09:48:07.983Z,3.80
2023-04-16T09:51:10.932Z,3.75
2023-04-16T09:54:13.975Z,3.60
2023-04-16T09:57:24.558Z,3.50
2023-04-16T10:00:27.637Z,3.80
2023-04-16T10:03:34.747Z,3.38
2023-04-16T10:06:37.972Z,3.05
2023-04-16T10:09:41.607Z,3.30
2023-04-16T10:12:44.587Z,3.60
2023-04-16T10:15:47.483Z,3.17
2023-04-16T10:18:50.702Z,3.30
2023-04-16T10:21:54.853Z,3.60
2023-04-16T10:24:58.137Z,2.80
2023-04-16T10:28:01.082Z,2.70
2023-04-16T10:31:08.742Z,2.83
2023-04-16T10:34:11.984Z,2.88
2023-04-16T10:37:18.093Z,3.20
2023-04-16T10:40:27.735Z,2.60
2023-04-16T10:43:39.015Z,2.37
2023-04-16T10:46:51.078Z,2.63
2023-04-16T10:49:53.993Z,2.60
2023-04-16T10:53:24.130Z,3.00
2023-04-16T10:56:31.466Z,2.93
2023-04-16T10:59:35.703Z,3.30
2023-04-16T11:02:38.822Z,2.45
2023-04-16T11:05:50.959Z,3.00
2023-04-16T11:08:55.439Z,3.15
2023-04-16T11:11:58.513Z,2.80
2023-04-16T11:15:03.573Z,2.90
2023-04-16T11:18:07.202Z,3.42
2023-04-16T11:21:11.078Z,2.47
2023-04-16T11:24:14.068Z,2.88
2023-04-16T11:27:17.054Z,3.10
2023-04-16T11:30:28.602Z,3.00
2023-04-16T11:33:31.600Z,2.88
2023-04-16T11:36:50.643Z,3.17
2023-04-16T11:39:53.905Z,3.08
2023-04-16T11:43:00.676Z,3.57
2023-04-16T11:46:16.204Z,2.30
2023-04-16T11:49:30.932Z,2.80
2023-04-16T11:52:34.160Z,2.92
2023-04-16T11:55:45.565Z,3.05
2023-04-16T11:59:10.412Z,2.67
2023-04-16T12:02:13.737Z,3.07
2023-04-16T12:05:37.312Z,3.15
2023-04-16T12:08:40.322Z,2.97
2023-04-16T12:11:43.653Z,3.80
2023-04-16T12:14:52.717Z,3.10
2023-04-16T12:18:16.453Z,2.80
2023-04-16T12:21:19.409Z,2.60
2023-04-16T12:24:24.242Z,2.30
2023-04-16T12:27:28.684Z,2.63
2023-04-16T12:30:31.727Z,2.70
2023-04-16T12:33:34.917Z,2.10
2023-04-16T12:36:38.351Z,2.80
2023-04-16T12:39:41.396Z,2.45
2023-04-16T12:42:44.329Z,1.88
2023-04-16T12:45:47.470Z,2.20
2023-04-16T12:48:50.480Z,2.33
2023-04-16T12:51:53.516Z,2.25
2023-04-16T12:54:56.496Z,2.25
2023-04-16T12:57:59.470Z,2.50
2023-04-16T13:01:02.500Z,2.20
2023-04-16T13:04:06.024Z,2.30
2023-04-16T13:07:09.052Z,2.25
2023-04-16T13:10:12.032Z,2.65
2023-04-16T13:13:16.508Z,2.22
2023-04-16T13:16:19.632Z,3.03
2023-04-16T13:19:22.628Z,2.90
2023-04-16T13:22:25.548Z,1.80
2023-04-16T13:25:29.664Z,2.20
2023-04-16T13:28:32.613Z,2.70
2023-04-16T13:31:35.891Z,2.80
2023-04-16T13:34:38.824Z,2.83
2023-04-16T13:37:41.786Z,2.42
2023-04-16T13:40:45.388Z,2.25
2023-04-16T13:43:48.356Z,1.92
2023-04-16T13:46:51.707Z,2.63
2023-04-16T13:49:54.780Z,3.53
2023-04-16T13:52:57.799Z,3.28
2023-04-16T13:56:03.678Z,2.80
2023-04-16T13:59:06.652Z,2.50
2023-04-16T14:02:10.365Z,2.70
2023-04-16T14:05:13.484Z,2.37
2023-04-16T14:08:17.033Z,1.83
2023-04-16T14:11:19.968Z,1.90
2023-04-16T14:14:25.467Z,1.85
2023-04-16T14:17:28.416Z,2.30
2023-04-16T14:20:31.414Z,1.63
2023-04-16T14:23:34.386Z,1.67
2023-04-16T14:26:37.318Z,6.40
2023-04-16T14:29:41.303Z,6.43
2023-04-16T14:32:44.434Z,3.40
2023-04-16T14:35:47.409Z,3.83
2023-04-16T14:38:50.364Z,2.40
2023-04-16T14:41:53.276Z,2.58
2023-04-16T14:44:56.183Z,2.00
2023-04-16T14:47:59.136Z,1.70
2023-04-16T14:51:02.125Z,2.00
2023-04-16T14:54:05.265Z,2.60
2023-04-16T14:57:08.248Z,2.47
2023-04-16T15:00:12.022Z,1.90
2023-04-16T15:03:15.209Z,2.20
2023-04-16T15:06:19.071Z,2.20
2023-04-16T15:09:22.116Z,1.60
2023-04-16T15:12:26.438Z,2.40
2023-04-16T15:15:29.368Z,2.20
2023-04-16T15:18:33.914Z,2.47
2023-04-16T15:21:37.036Z,2.40
2023-04-16T15:24:40.509Z,2.30
2023-04-16T15:27:43.425Z,2.40
2023-04-16T15:30:46.387Z,2.40
2023-04-16T15:33:49.676Z,6.13
2023-04-16T15:36:52.671Z,3.37
2023-04-16T15:39:55.675Z,2.30
2023-04-16T15:42:58.919Z,2.10
2023-04-16T15:46:02.020Z,2.53
2023-04-16T15:49:05.048Z,2.20
2023-04-16T15:52:07.994Z,2.37
2023-04-16T15:55:11.041Z,2.45
2023-04-16T15:58:14.066Z,2.15
2023-04-16T16:01:17.160Z,2.92
2023-04-16T16:04:23.017Z,2.87
2023-04-16T16:07:26.760Z,2.90
2023-04-16T16:10:29.778Z,2.30
2023-04-16T16:13:32.777Z,2.40
2023-04-16T16:16:35.942Z,2.63
2023-04-16T16:19:38.931Z,2.60
2023-04-16T16:22:45.267Z,2.33
2023-04-16T16:25:48.207Z,2.60
2023-04-16T16:28:51.156Z,1.95
2023-04-16T16:31:54.154Z,2.15
2023-04-16T16:34:57.556Z,2.70
2023-04-16T16:38:01.772Z,2.60
2023-04-16T16:41:04.750Z,3.55
2023-04-16T16:44:08.098Z,2.60
2023-04-16T16:47:11.341Z,3.58
2023-04-16T16:50:14.625Z,3.80
2023-04-16T16:53:17.590Z,2.90
2023-04-16T16:56:20.575Z,2.95
2023-04-16T16:59:23.552Z,3.50
2023-04-16T17:02:26.604Z,4.38
2023-04-16T17:05:29.638Z,3.40
2023-04-16T17:08:32.614Z,2.80
2023-04-16T17:11:35.740Z,3.25
2023-04-16T17:14:39.394Z,2.80
2023-04-16T17:17:42.670Z,2.72
2023-04-16T17:20:45.693Z,2.90
2023-04-16T17:23:48.629Z,3.13
2023-04-16T17:26:51.649Z,3.15
2023-04-16T17:30:00.103Z,3.35
2023-04-16T17:33:04.720Z,3.60
2023-04-16T17:36:07.938Z,3.30
2023-04-16T17:39:11.506Z,3.70
2023-04-16T17:42:14.436Z,4.95
2023-04-16T17:45:17.520Z,6.32
2023-04-16T17:48:20.494Z,7.40
2023-04-16T17:51:23.441Z,6.57
2023-04-16T17:54:26.488Z,4.77
2023-04-16T17:57:29.518Z,4.35
2023-04-16T18:00:32.563Z,5.05
2023-04-16T18:03:37.138Z,3.92
2023-04-16T18:06:40.375Z,4.40
2023-04-16T18:09:43.332Z,3.73
2023-04-16T18:12:46.272Z,4.05
2023-04-16T18:15:49.292Z,3.00
2023-04-16T18:18:52.226Z,2.80
2023-04-16T18:21:58.819Z,3.50
2023-04-16T18:25:01.803Z,3.63
2023-04-16T18:28:06.297Z,2.78
2023-04-16T18:31:09.423Z,4.47
2023-04-16T18:34:12.553Z,5.45
2023-04-16T18:37:16.264Z,5.13
2023-04-16T18:40:19.293Z,4.40
2023-04-16T18:43:23.770Z,4.45
2023-04-16T18:46:27.627Z,3.70
2023-04-16T18:49:30.855Z,3.10
2023-04-16T18:52:33.772Z,3.40
2023-04-16T18:55:36.724Z,3.60
2023-04-16T18:58:39.723Z,3.50
2023-04-16T19:01:42.651Z,3.90
2023-04-16T19:04:45.879Z,3.70
2023-04-16T19:07:48.888Z,3.20
2023-04-16T19:10:52.502Z,4.10
2023-04-16T19:13:55.783Z,3.35
2023-04-16T19:16:59.254Z,3.10
2023-04-16T19:20:02.294Z,3.50
2023-04-16T19:23:06.038Z,3.43
2023-04-16T19:26:09.088Z,3.43
2023-04-16T19:29:12.664Z,3.10
2023-04-16T19:32:16.067Z,4.00
2023-04-16T19:35:19.023Z,4.13
2023-04-16T19:38:22.106Z,4.47
2023-04-16T19:41:25.061Z,5.03
2023-04-16T19:44:28.129Z,3.88
2023-04-16T19:47:31.243Z,3.85
2023-04-16T19:50:34.215Z,3.55
2023-04-16T19:53:37.233Z,3.30
2023-04-16T19:56:40.278Z,3.00
2023-04-16T19:59:43.345Z,3.95
2023-04-16T20:02:46.428Z,5.07
2023-04-16T20:05:50.025Z,4.60
2023-04-16T20:08:53.058Z,2.70
2023-04-16T20:11:57.048Z,3.00
2023-04-16T20:15:00.173Z,2.35
2023-04-16T20:18:03.202Z,2.50
2023-04-16T20:21:07.007Z,3.10
2023-04-16T20:24:10.772Z,2.67
2023-04-16T20:27:15.123Z,2.63
2023-04-16T20:30:18.214Z,5.68
2023-04-16T20:33:21.276Z,6.57
2023-04-16T20:36:24.255Z,5.45
2023-04-16T20:39:27.422Z,3.40
2023-04-16T20:42:32.264Z,3.73
2023-04-16T20:45:38.332Z,3.40
2023-04-16T20:48:41.294Z,3.65
2023-04-16T20:51:44.339Z,3.65
2023-04-16T20:54:47.839Z,3.00
2023-04-16T20:57:50.806Z,3.00
2023-04-16T21:00:54.377Z,2.63
2023-04-16T21:03:57.452Z,3.50
2023-04-16T21:07:03.275Z,2.72
2023-04-16T21:10:07.047Z,2.47
2023-04-16T21:13:12.710Z,2.77
2023-04-16T21:16:15.679Z,3.00
2023-04-16T21:19:18.675Z,2.20
2023-04-16T21:22:21.622Z,2.20
2023-04-16T21:25:24.764Z,2.30
2023-04-16T21:28:27.724Z,2.30
2023-04-16T21:31:30.758Z,2.47
2023-04-16T21:34:33.749Z,2.10
2023-04-16T21:37:37.010Z,2.25
2023-04-16T21:40:39.944Z,3.50
2023-04-16T21:43:42.893Z,2.27
2023-04-16T21:46:46.012Z,2.40
2023-04-16T21:49:48.991Z,2.17
2023-04-16T21:52:52.534Z,2.00
2023-04-16T21:55:55.456Z,2.10
2023-04-16T21:58:58.463Z,2.67
2023-04-16T22:02:01.556Z,2.00
2023-04-16T22:05:04.735Z,2.63
2023-04-16T22:08:23.505Z,2.35
2023-04-16T22:11:27.347Z,2.03
2023-04-16T22:14:31.933Z,1.90
2023-04-16T22:17:35.361Z,2.35
2023-04-16T22:20:39.125Z,2.25
2023-04-16T22:23:42.262Z,2.33
2023-04-16T22:26:45.408Z,2.60
2023-04-16T22:29:48.406Z,2.17
2023-04-16T22:32:51.381Z,2.35
2023-04-16T22:35:54.363Z,2.22
2023-04-16T22:38:57.315Z,2.20
2023-04-16T22:42:00.713Z,2.20
2023-04-16T22:45:04.609Z,2.00
2023-04-16T22:48:07.848Z,2.05
2023-04-16T22:51:10.929Z,2.10
2023-04-16T22:54:14.157Z,1.88
2023-04-16T22:57:21.059Z,2.00
2023-04-16T23:00:24.919Z,2.00
2023-04-16T23:03:28.010Z,2.13
2023-04-16T23:06:31.617Z,2.10
2023-04-16T23:09:34.623Z,1.95
2023-04-16T23:12:37.689Z,1.90
2023-04-16T23:15:40.818Z,1.83
2023-04-16T23:18:43.775Z,1.88
2023-04-16T23:21:46.754Z,2.15
2023-04-16T23:24:49.717Z,2.10
2023-04-16T23:27:52.680Z,2.23
2023-04-16T23:30:55.762Z,2.30
2023-04-16T23:33:58.715Z,2.10
2023-04-16T23:37:01.744Z,2.30
2023-04-16T23:40:05.108Z,2.03
2023-04-16T23:43:08.023Z,1.87
2023-04-16T23:46:11.421Z,1.80
2023-04-16T23:49:14.386Z,2.10
2023-04-16T23:52:17.298Z,2.00
2023-04-16T23:55:20.420Z,1.98
2023-04-16T23:58:23.419Z,2.20
